createdAt,value
2023-04-21T00:00:40.763Z,28.70
2023-04-21T00:03:11.614Z,29.80
2023-04-21T00:05:43.951Z,29.70
2023-04-21T00:08:13.775Z,28.88
2023-04-21T00:10:42.636Z,28.75
2023-04-21T00:13:13.402Z,30.20
2023-04-21T00:15:42.152Z,29.38
2023-04-21T00:18:11.561Z,29.50
2023-04-21T00:20:39.870Z,29.65
2023-04-21T00:23:12.458Z,29.52
2023-04-21T00:25:42.665Z,29.80
2023-04-21T00:28:11.701Z,30.02
2023-04-21T00:30:41.431Z,29.27
2023-04-21T00:33:10.081Z,29.90
2023-04-21T00:35:39.434Z,29.08
2023-04-21T00:38:07.720Z,28.98
2023-04-21T00:40:36.652Z,28.42
2023-04-21T00:43:10.252Z,28.88
2023-04-21T00:45:39.542Z,28.73
2023-04-21T00:48:08.682Z,29.27
2023-04-21T00:50:38.825Z,28.63
2023-04-21T00:53:07.433Z,28.05
2023-04-21T00:55:37.688Z,29.02
2023-04-21T00:58:06.761Z,29.42
2023-04-21T01:00:38.421Z,28.10
2023-04-21T01:03:08.166Z,27.83
2023-04-21T01:05:38.315Z,29.02
2023-04-21T01:08:08.329Z,26.75
2023-04-21T01:10:37.005Z,26.67
2023-04-21T01:13:06.250Z,28.02
2023-04-21T01:15:36.878Z,27.13
2023-04-21T01:18:05.676Z,27.58
2023-04-21T01:20:35.841Z,29.00
2023-04-21T01:23:05.882Z,29.05
2023-04-21T01:25:35.495Z,29.60
2023-04-21T01:28:04.962Z,28.90
2023-04-21T01:30:35.742Z,28.73
2023-04-21T01:33:04.453Z,28.70
2023-04-21T01:35:32.766Z,28.63
2023-04-21T01:38:03.421Z,29.02
2023-04-21T01:40:35.329Z,26.85
2023-04-21T01:43:04.735Z,28.65
2023-04-21T01:45:34.371Z,28.30
2023-04-21T01:48:03.865Z,27.52
2023-04-21T01:50:33.583Z,28.20
2023-04-21T01:53:03.338Z,29.25
2023-04-21T01:55:35.960Z,29.20
2023-04-21T01:58:04.276Z,29.65
2023-04-21T02:00:32.560Z,29.60
2023-04-21T02:03:02.488Z,29.92
2023-04-21T02:05:31.135Z,28.77
2023-04-21T02:08:00.737Z,26.90
2023-04-21T02:10:30.451Z,28.15
2023-04-21T02:13:01.760Z,27.52
2023-04-21T02:15:31.810Z,28.20
2023-04-21T02:18:00.609Z,28.15
2023-04-21T02:20:30.605Z,29.50
2023-04-21T02:22:59.287Z,27.48
2023-04-21T02:25:28.255Z,30.38
2023-04-21T02:27:57.813Z,30.25
2023-04-21T02:30:28.438Z,29.02
2023-04-21T02:32:57.263Z,30.25
2023-04-21T02:35:28.768Z,29.15
2023-04-21T02:37:58.616Z,29.85
2023-04-21T02:40:29.436Z,32.78
2023-04-21T02:42:59.541Z,29.85
2023-04-21T02:45:29.268Z,32.25
2023-04-21T02:48:00.653Z,31.52
2023-04-21T02:50:29.702Z,30.70
2023-04-21T02:52:57.998Z,29.70
2023-04-21T02:55:28.503Z,31.67
2023-04-21T02:57:58.541Z,29.60
2023-04-21T03:00:30.626Z,30.95
2023-04-21T03:02:59.975Z,29.83
2023-04-21T03:05:28.382Z,29.20
2023-04-21T03:07:58.917Z,31.75
2023-04-21T03:10:28.959Z,30.67
2023-04-21T03:12:57.326Z,30.67
2023-04-21T03:15:26.625Z,32.13
2023-04-21T03:17:56.351Z,31.30
2023-04-21T03:20:24.751Z,31.98
2023-04-21T03:22:56.611Z,30.58
2023-04-21T03:25:27.926Z,32.33
2023-04-21T03:27:57.599Z,32.45
2023-04-21T03:30:26.626Z,31.67
2023-04-21T03:32:57.623Z,31.48
2023-04-21T03:35:26.818Z,30.85
2023-04-21T03:37:56.544Z,32.60
2023-04-21T03:40:26.042Z,28.13
2023-04-21T03:42:54.516Z,27.60
2023-04-21T03:45:25.660Z,27.80
2023-04-21T03:47:57.133Z,29.05
2023-04-21T03:50:28.200Z,25.90
2023-04-21T03:52:56.504Z,29.40
2023-04-21T03:55:25.096Z,28.98
2023-04-21T03:57:54.952Z,27.65
2023-04-21T04:00:25.935Z,26.75
2023-04-21T04:02:56.911Z,24.77
2023-04-21T04:05:25.642Z,24.95
2023-04-21T04:07:53.942Z,25.48
2023-04-21T04:10:23.750Z,27.17
2023-04-21T04:12:52.377Z,25.92
2023-04-21T04:15:22.114Z,26.65
2023-04-21T04:17:51.005Z,26.77
2023-04-21T04:20:21.568Z,33.20
2023-04-21T04:22:51.004Z,31.15
2023-04-21T04:25:22.147Z,29.00
2023-04-21T04:27:52.779Z,30.17
2023-04-21T04:30:22.506Z,29.27
2023-04-21T04:32:53.848Z,28.20
2023-04-21T04:35:25.554Z,27.60
2023-04-21T04:37:55.167Z,27.02
2023-04-21T04:40:24.665Z,28.08
2023-04-21T04:42:53.709Z,27.95
2023-04-21T04:45:22.756Z,26.85
2023-04-21T04:47:53.435Z,28.05
2023-04-21T04:50:23.353Z,27.75
2023-04-21T04:52:51.814Z,27.80
2023-04-21T04:55:21.597Z,28.20
2023-04-21T04:57:50.508Z,27.40
2023-04-21T05:00:22.016Z,27.27
2023-04-21T05:02:50.742Z,26.38
2023-04-21T05:05:19.131Z,26.75
2023-04-21T05:07:49.851Z,27.38
2023-04-21T05:10:18.351Z,26.45
2023-04-21T05:12:47.951Z,27.10
2023-04-21T05:15:16.429Z,26.70
2023-04-21T05:17:44.745Z,26.55
2023-04-21T05:23:07.714Z,24.40
2023-04-21T05:25:39.476Z,26.48
2023-04-21T05:28:09.180Z,26.65
2023-04-21T05:30:39.730Z,28.40
2023-04-21T05:33:09.518Z,28.63
2023-04-21T05:35:38.579Z,26.75
2023-04-21T05:38:10.625Z,25.73
2023-04-21T05:40:38.996Z,27.33
2023-04-21T05:43:07.467Z,25.40
2023-04-21T05:45:41.600Z,26.65
2023-04-21T05:48:12.247Z,25.85
2023-04-21T05:50:43.630Z,27.25
2023-04-21T05:53:15.987Z,27.25
2023-04-21T05:55:45.981Z,27.77
2023-04-21T05:58:14.712Z,30.10
2023-04-21T06:00:44.633Z,27.42
2023-04-21T06:03:13.787Z,26.40
2023-04-21T06:05:43.084Z,25.45
2023-04-21T06:08:15.406Z,25.40
2023-04-21T06:10:43.703Z,24.00
2023-04-21T06:13:12.952Z,23.70
2023-04-21T06:15:41.556Z,23.75
2023-04-21T06:18:10.890Z,24.48
2023-04-21T06:20:40.977Z,23.27
2023-04-21T06:23:10.534Z,23.80
2023-04-21T06:25:40.948Z,22.80
2023-04-21T06:28:37.716Z,22.98
2023-04-21T06:31:09.129Z,24.27
2023-04-21T06:33:39.001Z,24.08
2023-04-21T06:36:08.063Z,25.50
2023-04-21T06:38:38.626Z,23.50
2023-04-21T06:41:08.469Z,22.17
2023-04-21T06:43:39.010Z,21.05
2023-04-21T06:46:08.751Z,21.30
2023-04-21T06:48:37.029Z,21.95
2023-04-21T06:51:06.731Z,20.95
2023-04-21T06:53:35.164Z,20.85
2023-04-21T06:56:04.527Z,20.20
2023-04-21T06:58:34.246Z,20.17
2023-04-21T07:01:03.998Z,20.05
2023-04-21T07:03:33.918Z,19.48
2023-04-21T07:06:03.516Z,18.83
2023-04-21T07:08:33.028Z,18.15
2023-04-21T07:11:02.413Z,18.67
2023-04-21T07:13:30.775Z,19.20
2023-04-21T07:16:01.743Z,19.10
2023-04-21T07:18:35.037Z,19.10
2023-04-21T07:21:05.728Z,18.05
2023-04-21T07:23:34.521Z,18.20
2023-04-21T07:26:06.616Z,17.00
2023-04-21T07:28:35.472Z,15.93
2023-04-21T07:31:07.608Z,16.15
2023-04-21T07:33:35.949Z,15.88
2023-04-21T07:36:04.361Z,15.95
2023-04-21T07:38:34.817Z,15.65
2023-04-21T07:41:03.189Z,15.75
2023-04-21T07:43:32.868Z,15.45
2023-04-21T07:46:01.504Z,14.32
2023-04-21T07:48:32.376Z,15.98
2023-04-21T07:51:03.768Z,15.25
2023-04-21T07:53:32.837Z,14.20
2023-04-21T07:56:01.660Z,14.40
2023-04-21T07:58:30.784Z,13.95
2023-04-21T08:01:00.023Z,13.15
2023-04-21T08:03:28.670Z,13.13
2023-04-21T08:06:00.023Z,13.18
2023-04-21T08:08:30.195Z,12.13
2023-04-21T08:11:00.950Z,13.43
2023-04-21T08:13:30.183Z,11.98
2023-04-21T08:15:58.720Z,12.05
2023-04-21T08:18:27.978Z,11.57
2023-04-21T08:20:58.706Z,11.32
2023-04-21T08:23:32.579Z,12.07
2023-04-21T08:26:01.614Z,11.85
2023-04-21T08:28:32.764Z,11.50
2023-04-21T08:31:03.925Z,10.68
2023-04-21T08:33:33.807Z,9.88
2023-04-21T08:36:09.833Z,10.40
2023-04-21T08:38:47.090Z,10.65
2023-04-21T08:41:16.811Z,10.52
2023-04-21T08:43:45.881Z,10.75
2023-04-21T08:46:16.220Z,9.95
2023-04-21T08:48:45.803Z,10.52
2023-04-21T08:51:22.741Z,10.18
2023-04-21T08:53:54.505Z,10.68
2023-04-21T08:56:23.849Z,10.57
2023-04-21T08:58:52.797Z,9.98
2023-04-21T09:01:21.661Z,9.90
2023-04-21T09:03:50.302Z,10.55
2023-04-21T09:06:20.393Z,9.82
2023-04-21T09:08:57.110Z,9.75
2023-04-21T09:11:29.843Z,9.85
2023-04-21T09:13:59.143Z,9.95
2023-04-21T09:16:33.998Z,9.80
2023-04-21T09:19:02.570Z,10.20
2023-04-21T09:21:33.013Z,9.77
2023-04-21T09:24:07.519Z,9.88
2023-04-21T09:26:37.797Z,9.52
2023-04-21T09:29:08.206Z,10.77
2023-04-21T09:31:39.225Z,9.63
2023-04-21T09:34:20.839Z,9.77
2023-04-21T09:36:49.911Z,10.68
2023-04-21T09:39:42.732Z,10.25
2023-04-21T09:42:13.318Z,9.93
2023-04-21T09:44:52.487Z,10.50
2023-04-21T09:47:30.974Z,9.60
2023-04-21T09:50:02.759Z,9.30
2023-04-21T09:52:33.736Z,9.50
2023-04-21T09:55:05.926Z,9.20
2023-04-21T09:57:35.813Z,8.73
2023-04-21T10:00:09.785Z,9.50
2023-04-21T10:02:46.856Z,9.02
2023-04-21T10:05:15.958Z,8.05
2023-04-21T10:07:46.660Z,8.20
2023-04-21T10:10:25.811Z,8.57
2023-04-21T10:12:56.160Z,8.52
2023-04-21T10:15:32.608Z,8.73
2023-04-21T10:18:24.693Z,7.80
2023-04-21T10:20:55.993Z,8.18
2023-04-21T10:23:33.988Z,8.05
2023-04-21T10:26:12.116Z,7.13
2023-04-21T10:28:43.716Z,7.65
2023-04-21T10:31:23.382Z,7.10
2023-04-21T10:34:22.699Z,7.10
2023-04-21T10:37:12.768Z,7.78
2023-04-21T10:39:56.043Z,7.05
2023-04-21T10:42:37.305Z,6.93
2023-04-21T10:45:13.867Z,6.38
2023-04-21T10:47:50.019Z,5.97
2023-04-21T10:50:20.727Z,6.35
2023-04-21T10:52:55.872Z,6.70
2023-04-21T10:55:28.749Z,6.15
2023-04-21T10:58:00.026Z,5.88
2023-04-21T11:00:30.719Z,6.03
2023-04-21T11:03:02.026Z,5.25
2023-04-21T11:05:33.542Z,5.43
2023-04-21T11:08:14.928Z,5.03
2023-04-21T11:10:50.044Z,4.95
2023-04-21T11:13:24.030Z,5.18
2023-04-21T11:16:04.021Z,6.10
2023-04-21T11:18:42.578Z,4.95
2023-04-21T11:21:18.373Z,4.32
2023-04-21T11:23:52.923Z,4.72
2023-04-21T11:26:34.201Z,4.50
2023-04-21T11:29:08.753Z,3.90
2023-04-21T11:31:40.602Z,4.20
2023-04-21T11:34:12.008Z,4.45
2023-04-21T11:36:43.741Z,3.80
2023-04-21T11:39:13.594Z,3.80
2023-04-21T11:41:43.772Z,3.30
2023-04-21T11:44:16.898Z,3.33
2023-04-21T11:46:47.069Z,3.08
2023-04-21T11:49:18.026Z,3.38
2023-04-21T11:51:47.796Z,3.47
2023-04-21T11:54:17.035Z,3.10
2023-04-21T11:56:50.510Z,3.15
2023-04-21T11:59:27.624Z,3.72
2023-04-21T12:01:56.655Z,2.90
2023-04-21T12:04:29.896Z,2.75
2023-04-21T12:07:03.553Z,2.85
2023-04-21T12:09:33.998Z,4.57
2023-04-21T12:12:04.666Z,2.60
2023-04-21T12:14:36.752Z,2.80
2023-04-21T12:17:08.254Z,2.97
2023-04-21T12:19:41.083Z,3.05
2023-04-21T12:22:10.366Z,3.35
2023-04-21T12:24:40.765Z,2.50
2023-04-21T12:27:10.254Z,4.22
2023-04-21T12:29:43.152Z,3.05
2023-04-21T12:32:11.566Z,2.95
2023-04-21T12:34:44.770Z,2.90
2023-04-21T12:37:14.111Z,2.63
2023-04-21T12:39:43.804Z,2.85
2023-04-21T12:42:13.070Z,2.88
2023-04-21T12:44:43.091Z,2.65
2023-04-21T12:47:11.373Z,2.80
2023-04-21T12:49:40.908Z,2.80
2023-04-21T12:52:09.170Z,2.70
2023-04-21T12:54:39.423Z,2.83
2023-04-21T12:57:07.991Z,2.88
2023-04-21T12:59:38.122Z,2.60
2023-04-21T13:02:10.011Z,2.60
2023-04-21T13:04:39.285Z,2.30
2023-04-21T13:07:09.223Z,2.60
2023-04-21T13:09:39.312Z,2.63
2023-04-21T13:12:07.758Z,2.35
2023-04-21T13:14:36.845Z,2.40
2023-04-21T13:17:07.856Z,2.40
2023-04-21T13:19:36.985Z,2.50
2023-04-21T13:22:06.982Z,2.30
2023-04-21T13:24:35.594Z,2.88
2023-04-21T13:27:05.799Z,2.53
2023-04-21T13:29:37.445Z,2.70
2023-04-21T13:32:08.782Z,2.45
2023-04-21T13:34:37.967Z,2.50
2023-04-21T13:37:09.148Z,2.90
2023-04-21T13:39:39.999Z,2.33
2023-04-21T13:42:08.401Z,2.45
2023-04-21T13:44:37.951Z,2.45
2023-04-21T13:47:09.708Z,2.55
2023-04-21T13:49:39.072Z,3.00
2023-04-21T13:52:07.676Z,2.45
2023-04-21T13:54:37.377Z,2.38
2023-04-21T13:57:07.507Z,2.45
2023-04-21T13:59:37.151Z,2.90
2023-04-21T14:02:05.719Z,3.20
2023-04-21T14:04:39.085Z,2.40
2023-04-21T14:09:39.004Z,2.28
2023-04-21T14:12:07.352Z,2.30
2023-04-21T14:14:38.868Z,2.33
2023-04-21T14:17:09.978Z,2.58
2023-04-21T14:19:39.731Z,2.85
2023-04-21T14:22:11.872Z,2.47
2023-04-21T14:24:40.471Z,2.50
2023-04-21T14:27:10.795Z,2.53
2023-04-21T14:29:39.987Z,2.40
2023-04-21T14:32:10.954Z,3.08
2023-04-21T14:34:42.269Z,3.28
2023-04-21T14:37:12.144Z,2.78
2023-04-21T14:39:40.716Z,2.92
2023-04-21T14:42:11.215Z,3.70
2023-04-21T14:44:39.718Z,2.50
2023-04-21T14:47:10.338Z,2.20
2023-04-21T14:49:42.049Z,2.53
2023-04-21T14:52:11.145Z,3.00
2023-04-21T14:54:41.158Z,3.45
2023-04-21T14:57:20.463Z,3.40
2023-04-21T14:59:51.914Z,2.58
2023-04-21T15:02:21.637Z,2.60
2023-04-21T15:04:53.424Z,2.38
2023-04-21T15:07:24.987Z,2.65
2023-04-21T15:09:54.938Z,2.80
2023-04-21T15:12:24.960Z,2.70
2023-04-21T15:14:55.065Z,2.53
2023-04-21T15:17:23.767Z,2.40
2023-04-21T15:19:54.929Z,2.47
2023-04-21T15:22:24.540Z,2.75
2023-04-21T15:24:54.530Z,2.28
2023-04-21T15:27:25.022Z,2.25
2023-04-21T15:29:54.813Z,2.30
2023-04-21T15:32:24.262Z,2.28
2023-04-21T15:34:57.244Z,2.65
2023-04-21T15:37:26.016Z,2.58
2023-04-21T15:39:56.176Z,3.03
2023-04-21T15:42:24.479Z,2.53
2023-04-21T15:44:53.844Z,2.58
2023-04-21T15:47:23.955Z,2.78
2023-04-21T15:49:55.582Z,2.15
2023-04-21T15:52:26.027Z,2.90
2023-04-21T15:54:54.383Z,3.05
2023-04-21T15:57:25.530Z,2.90
2023-04-21T15:59:54.953Z,2.90
2023-04-21T16:02:25.181Z,2.40
2023-04-21T16:04:57.942Z,2.90
2023-04-21T16:07:27.577Z,3.10
2023-04-21T16:09:58.489Z,2.90
2023-04-21T16:12:28.473Z,2.60
2023-04-21T16:15:04.142Z,2.72
2023-04-21T16:17:46.529Z,2.97
2023-04-21T16:20:18.357Z,3.42
2023-04-21T16:22:47.086Z,2.80
2023-04-21T16:25:21.607Z,2.63
2023-04-21T16:27:54.264Z,2.80
2023-04-21T16:30:25.002Z,2.80
2023-04-21T16:32:54.931Z,2.55
2023-04-21T16:35:27.353Z,2.83
2023-04-21T16:37:58.103Z,2.50
2023-04-21T16:40:28.088Z,2.38
2023-04-21T16:42:58.084Z,2.63
2023-04-21T16:45:26.605Z,2.50
2023-04-21T16:47:56.175Z,2.72
2023-04-21T16:50:27.005Z,2.60
2023-04-21T16:52:55.458Z,2.53
2023-04-21T16:55:26.091Z,2.70
2023-04-21T16:57:54.413Z,2.33
2023-04-21T17:00:25.129Z,2.47
2023-04-21T17:02:53.968Z,2.50
2023-04-21T17:05:24.972Z,2.88
2023-04-21T17:08:00.021Z,2.40
2023-04-21T17:10:29.993Z,2.65
2023-04-21T17:12:58.270Z,2.10
2023-04-21T17:15:28.081Z,2.58
2023-04-21T17:17:58.331Z,2.60
2023-04-21T17:20:31.904Z,2.05
2023-04-21T17:25:31.046Z,2.22
2023-04-21T17:28:03.005Z,2.15
2023-04-21T17:30:31.484Z,2.08
2023-04-21T17:33:16.247Z,2.17
2023-04-21T17:36:00.057Z,2.40
2023-04-21T17:38:34.404Z,3.63
2023-04-21T17:41:05.903Z,3.50
2023-04-21T17:43:34.188Z,2.85
2023-04-21T17:46:03.960Z,2.97
2023-04-21T17:48:34.199Z,3.05
2023-04-21T17:51:02.503Z,3.40
2023-04-21T17:53:32.847Z,3.90
2023-04-21T17:56:04.510Z,4.15
2023-04-21T17:58:32.860Z,3.83
2023-04-21T18:01:02.753Z,3.30
2023-04-21T18:03:32.047Z,3.45
2023-04-21T18:06:01.048Z,3.53
2023-04-21T18:08:31.199Z,3.05
2023-04-21T18:11:01.103Z,3.20
2023-04-21T18:13:30.875Z,3.10
2023-04-21T18:16:00.254Z,2.53
2023-04-21T18:18:30.341Z,3.28
2023-04-21T18:21:01.133Z,2.90
2023-04-21T18:23:34.031Z,3.38
2023-04-21T18:26:04.435Z,2.70
2023-04-21T18:28:36.275Z,2.90
2023-04-21T18:31:07.383Z,3.15
2023-04-21T18:33:37.755Z,4.18
2023-04-21T18:36:08.261Z,3.55
2023-04-21T18:38:36.555Z,5.40
2023-04-21T18:41:08.036Z,4.93
2023-04-21T18:43:39.543Z,3.83
2023-04-21T18:46:10.205Z,4.20
2023-04-21T18:48:41.632Z,3.55
2023-04-21T18:51:12.522Z,3.80
2023-04-21T18:53:44.115Z,3.30
2023-04-21T18:56:16.168Z,7.45
2023-04-21T18:58:44.480Z,37.17
2023-04-21T19:01:12.886Z,13.25
2023-04-21T19:03:43.369Z,7.93
2023-04-21T19:06:13.659Z,6.97
2023-04-21T19:08:44.570Z,4.55
2023-04-21T19:11:19.392Z,5.00
2023-04-21T19:13:48.305Z,5.40
2023-04-21T19:16:18.988Z,6.25
2023-04-21T19:18:48.140Z,13.50
2023-04-21T19:21:18.156Z,23.67
2023-04-21T19:23:46.462Z,24.58
2023-04-21T19:26:20.107Z,16.50
2023-04-21T19:31:21.677Z,12.60
2023-04-21T19:33:51.033Z,7.07
2023-04-21T19:36:20.762Z,6.82
2023-04-21T19:38:51.516Z,4.85
2023-04-21T19:41:21.706Z,4.90
2023-04-21T19:43:49.998Z,5.13
2023-04-21T19:46:23.289Z,4.75
2023-04-21T19:48:53.572Z,5.15
2023-04-21T19:51:24.075Z,5.22
2023-04-21T19:54:03.045Z,5.85
2023-04-21T19:56:41.194Z,5.57
2023-04-21T19:59:09.812Z,5.85
2023-04-21T20:01:39.118Z,6.40
2023-04-21T20:04:09.314Z,5.90
2023-04-21T20:06:41.882Z,5.88
2023-04-21T20:09:12.109Z,4.95
2023-04-21T20:11:44.811Z,5.13
2023-04-21T20:14:13.893Z,4.78
2023-04-21T20:16:45.542Z,5.45
2023-04-21T20:19:15.257Z,5.57
2023-04-21T20:21:46.730Z,5.05
2023-04-21T20:24:16.599Z,5.47
2023-04-21T20:26:48.676Z,5.05
2023-04-21T20:29:17.130Z,9.75
2023-04-21T20:31:47.156Z,10.57
2023-04-21T20:34:16.915Z,34.08
2023-04-21T20:36:45.489Z,26.98
2023-04-21T20:39:16.192Z,19.77
2023-04-21T20:41:48.106Z,14.73
2023-04-21T20:44:26.177Z,5.18
2023-04-21T20:46:55.929Z,5.30
2023-04-21T20:49:24.348Z,5.38
2023-04-21T20:52:01.605Z,5.28
2023-04-21T20:54:31.812Z,5.30
2023-04-21T20:57:03.235Z,5.25
2023-04-21T20:59:36.181Z,5.43
2023-04-21T21:02:07.156Z,5.90
2023-04-21T21:04:35.527Z,5.80
2023-04-21T21:07:08.168Z,5.47
2023-04-21T21:09:36.720Z,5.75
2023-04-21T21:12:09.324Z,5.80
2023-04-21T21:14:39.879Z,4.88
2023-04-21T21:17:08.302Z,5.13
2023-04-21T21:19:39.736Z,5.00
2023-04-21T21:22:10.434Z,5.30
2023-04-21T21:24:40.523Z,5.68
2023-04-21T21:27:11.615Z,5.45
2023-04-21T21:29:45.493Z,12.80
2023-04-21T21:32:13.861Z,9.40
2023-04-21T21:34:42.211Z,20.58
2023-04-21T21:37:12.654Z,9.80
2023-04-21T21:39:42.629Z,6.57
2023-04-21T21:42:14.043Z,6.65
2023-04-21T21:44:42.604Z,5.65
2023-04-21T21:47:12.870Z,6.72
2023-04-21T21:49:41.334Z,5.15
2023-04-21T21:52:09.681Z,5.88
2023-04-21T21:54:39.604Z,5.57
2023-04-21T21:57:08.282Z,5.18
2023-04-21T21:59:42.092Z,5.88
2023-04-21T22:02:10.971Z,5.40
2023-04-21T22:04:41.176Z,5.72
2023-04-21T22:07:09.489Z,5.38
2023-04-21T22:09:38.776Z,5.47
2023-04-21T22:12:10.095Z,5.18
2023-04-21T22:14:42.424Z,5.35
2023-04-21T22:17:14.992Z,5.60
2023-04-21T22:19:43.270Z,4.50
2023-04-21T22:22:13.707Z,5.40
2023-04-21T22:27:34.090Z,5.20
2023-04-21T22:30:06.259Z,5.00
2023-04-21T22:32:34.907Z,4.50
2023-04-21T22:35:05.588Z,4.82
2023-04-21T22:37:35.260Z,4.15
2023-04-21T22:40:04.570Z,4.28
2023-04-21T22:42:35.468Z,4.15
2023-04-21T22:45:06.378Z,4.40
2023-04-21T22:47:35.083Z,4.00
2023-04-21T22:50:06.161Z,3.97
2023-04-21T22:52:37.949Z,3.60
2023-04-21T22:55:08.244Z,3.80
2023-04-21T22:57:38.950Z,4.30
2023-04-21T23:00:11.982Z,4.32
2023-04-21T23:02:44.439Z,4.13
2023-04-21T23:05:14.277Z,4.63
2023-04-21T23:07:45.752Z,3.75
2023-04-21T23:10:14.241Z,4.05
2023-04-21T23:12:44.317Z,4.15
2023-04-21T23:15:14.627Z,4.40
2023-04-21T23:17:46.161Z,4.28
2023-04-21T23:20:14.929Z,4.50
2023-04-21T23:22:43.262Z,3.95
2023-04-21T23:25:13.845Z,4.10
2023-04-21T23:27:44.184Z,4.28
2023-04-21T23:30:17.057Z,4.43
2023-04-21T23:32:45.706Z,4.40
2023-04-21T23:35:16.813Z,4.38
2023-04-21T23:37:48.200Z,4.40
2023-04-21T23:40:19.304Z,4.20
2023-04-21T23:42:49.080Z,4.22
2023-04-21T23:45:18.806Z,4.13
2023-04-21T23:47:48.875Z,4.32
2023-04-21T23:50:18.103Z,4.28
2023-04-21T23:52:46.780Z,4.07
2023-04-21T23:55:16.034Z,4.00
2023-04-21T23:57:46.933Z,4.30
